Time;durP1;ratioP1;P1;durP2;ratioP2;P2;SDS_P1;SDS_P2;PMS_P1;PMS_P2;Temp;Humidity;BMP_temperature;BMP_pressure;BME280_temperature;BME280_humidity;BME280_pressure;Samples;Min_cycle;Max_cycle;Signal;HPM_P1;HPM_P2
2022/02/18 00:00:25;;;;;;;13.23;3.70;;;5.70;99.90;;;;;;5113299;28;20047;-71
2022/02/18 00:02:51;;;;;;;19.85;3.15;;;5.70;99.90;;;;;;5112764;28;20481;-70
2022/02/18 00:05:16;;;;;;;16.30;3.20;;;5.60;99.90;;;;;;5113154;28;20038;-71
2022/02/18 00:07:42;;;;;;;15.98;3.40;;;5.70;99.90;;;;;;5113266;28;20035;-71
2022/02/18 00:10:08;;;;;;;21.90;3.88;;;5.60;99.90;;;;;;5112966;28;20032;-71
2022/02/18 00:12:34;;;;;;;13.45;2.90;;;5.60;99.90;;;;;;5112792;28;20051;-71
2022/02/18 00:14:59;;;;;;;16.88;3.67;;;5.70;99.90;;;;;;5112852;28;20405;-71
2022/02/18 00:17:25;;;;;;;11.40;2.70;;;5.60;99.90;;;;;;5113071;28;20042;-71
2022/02/18 00:19:50;;;;;;;13.82;3.40;;;5.60;99.90;;;;;;5112717;28;20039;-71
2022/02/18 00:22:16;;;;;;;16.23;2.83;;;5.60;99.90;;;;;;5112638;28;20114;-71
2022/02/18 00:24:42;;;;;;;18.38;3.45;;;5.60;99.90;;;;;;5112721;28;20042;-71
2022/02/18 00:27:07;;;;;;;12.13;2.83;;;5.60;99.90;;;;;;5094236;28;20119;-71
2022/02/18 00:29:33;;;;;;;13.70;3.78;;;5.60;99.90;;;;;;5112808;28;20092;-71
2022/02/18 00:31:58;;;;;;;11.07;3.03;;;5.60;99.90;;;;;;5112607;28;20084;-69
2022/02/18 00:34:24;;;;;;;11.38;3.03;;;5.50;99.90;;;;;;5094796;28;20043;-69
2022/02/18 00:36:50;;;;;;;14.43;3.50;;;5.60;99.90;;;;;;5094577;28;20047;-69
2022/02/18 00:39:15;;;;;;;16.45;3.08;;;5.60;99.90;;;;;;5112297;28;20389;-69
2022/02/18 00:41:41;;;;;;;14.18;3.17;;;5.50;99.90;;;;;;5112363;28;20599;-69
2022/02/18 00:44:07;;;;;;;11.80;3.72;;;5.50;99.90;;;;;;5112625;28;20039;-69
2022/02/18 00:46:33;;;;;;;23.60;5.28;;;5.50;99.90;;;;;;5094146;28;20044;-69
2022/02/18 00:48:59;;;;;;;11.55;3.03;;;5.50;99.90;;;;;;5112336;28;20417;-69
2022/02/18 00:51:24;;;;;;;14.15;3.58;;;5.40;99.90;;;;;;5093902;28;20153;-69
2022/02/18 00:53:50;;;;;;;11.43;2.53;;;5.40;99.90;;;;;;5112136;28;20640;-68
2022/02/18 00:56:16;;;;;;;13.00;2.72;;;5.40;99.90;;;;;;5094308;28;20050;-69
2022/02/18 00:58:42;;;;;;;8.00;2.30;;;5.40;99.90;;;;;;5094282;28;20067;-68
2022/02/18 01:01:08;;;;;;;16.27;2.72;;;5.30;99.90;;;;;;5112155;28;20166;-69
2022/02/18 01:03:35;;;;;;;12.88;2.90;;;5.30;99.90;;;;;;5077679;28;20051;-69
2022/02/18 01:06:01;;;;;;;14.13;3.15;;;5.30;99.90;;;;;;5095407;28;20102;-68
2022/02/18 01:08:27;;;;;;;14.35;2.50;;;5.30;99.90;;;;;;5113683;28;20040;-68
2022/02/18 01:10:52;;;;;;;7.70;2.33;;;5.30;99.90;;;;;;5095497;28;20084;-70
2022/02/18 01:13:18;;;;;;;14.95;2.60;;;5.20;99.90;;;;;;5112721;28;20036;-71
2022/02/18 01:15:44;;;;;;;13.32;2.67;;;5.30;99.90;;;;;;5077647;28;20052;-71
2022/02/18 01:18:10;;;;;;;8.88;2.67;;;5.30;99.90;;;;;;5112496;28;20067;-70
2022/02/18 01:20:36;;;;;;;12.73;2.95;;;5.20;99.90;;;;;;5094105;28;20068;-71
2022/02/18 01:23:01;;;;;;;22.33;3.42;;;5.20;99.90;;;;;;5111821;28;20032;-71
2022/02/18 01:25:27;;;;;;;13.32;2.33;;;5.20;99.90;;;;;;5094256;28;20096;-70
2022/02/18 01:27:55;;;;;;;13.90;2.88;;;5.20;99.90;;;;;;5112316;28;20036;-70
2022/02/18 01:30:23;;;;;;;11.23;2.25;;;5.10;99.90;;;;;;5112238;28;20512;-70
2022/02/18 01:32:49;;;;;;;13.35;2.60;;;5.10;99.90;;;;;;5111902;28;20126;-70
2022/02/18 01:35:17;;;;;;;15.57;2.88;;;5.10;99.90;;;;;;5112117;28;20082;-70
2022/02/18 01:37:43;;;;;;;13.18;3.20;;;5.00;99.90;;;;;;5111961;28;20690;-71
2022/02/18 01:40:10;;;;;;;20.83;3.05;;;5.00;99.90;;;;;;5115660;28;20048;-70
2022/02/18 01:42:35;;;;;;;9.48;3.00;;;5.00;99.90;;;;;;5115610;28;20043;-71
2022/02/18 01:45:01;;;;;;;12.60;2.85;;;5.00;99.90;;;;;;5097631;28;20044;-70
2022/02/18 01:47:26;;;;;;;12.27;2.92;;;5.00;99.90;;;;;;5097634;28;20072;-70
2022/02/18 01:49:54;;;;;;;10.50;2.70;;;4.90;99.90;;;;;;5097733;28;20097;-71
2022/02/18 01:52:24;;;;;;;11.00;2.33;;;4.90;99.90;;;;;;5097036;28;20089;-70
2022/02/18 01:54:50;;;;;;;14.40;3.35;;;5.00;99.90;;;;;;5115846;28;20114;-71
2022/02/18 01:57:16;;;;;;;15.65;2.65;;;4.90;99.90;;;;;;5115735;28;20067;-70
2022/02/18 01:59:41;;;;;;;12.23;2.47;;;4.90;99.90;;;;;;5115725;28;20440;-70
2022/02/18 02:02:07;;;;;;;11.80;2.35;;;4.90;99.90;;;;;;5115319;28;20075;-71
2022/02/18 02:04:33;;;;;;;16.52;2.80;;;4.80;99.90;;;;;;5115554;28;20039;-71
2022/02/18 02:07:04;;;;;;;12.52;2.90;;;4.80;99.90;;;;;;5097420;28;20040;-71
2022/02/18 02:09:29;;;;;;;8.82;3.03;;;4.80;99.90;;;;;;5097144;28;20115;-71
2022/02/18 02:11:55;;;;;;;10.73;2.30;;;4.80;99.90;;;;;;5115256;28;20119;-70
2022/02/18 02:14:21;;;;;;;16.42;2.95;;;4.80;99.90;;;;;;5115403;28;20036;-71
2022/02/18 02:16:46;;;;;;;15.85;3.58;;;4.80;99.90;;;;;;5115245;28;20040;-70
2022/02/18 02:19:12;;;;;;;17.60;3.33;;;4.70;99.90;;;;;;5114897;28;20039;-70
2022/02/18 02:21:38;;;;;;;10.73;2.60;;;4.70;99.90;;;;;;5115004;28;20049;-71
2022/02/18 02:24:04;;;;;;;11.50;2.72;;;4.70;99.90;;;;;;5115390;28;20419;-71
2022/02/18 02:26:29;;;;;;;6.60;2.35;;;4.70;99.90;;;;;;5115031;28;20488;-70
2022/02/18 02:28:55;;;;;;;13.43;3.13;;;4.70;99.90;;;;;;5115091;28;20071;-70
2022/02/18 02:31:24;;;;;;;13.85;3.47;;;4.70;99.90;;;;;;5114648;28;20080;-71
2022/02/18 02:33:50;;;;;;;12.85;3.33;;;4.70;99.90;;;;;;5114911;28;20373;-71
2022/02/18 02:36:19;;;;;;;10.90;2.10;;;4.70;99.90;;;;;;5115108;28;20039;-72
2022/02/18 02:38:45;;;;;;;18.92;3.08;;;4.70;99.90;;;;;;5114908;28;20496;-71
2022/02/18 02:41:10;;;;;;;9.45;2.28;;;4.70;99.90;;;;;;5114584;28;20039;-71
2022/02/18 02:43:36;;;;;;;15.07;2.45;;;4.80;99.90;;;;;;5114993;28;20032;-71
2022/02/18 02:46:01;;;;;;;10.50;2.30;;;4.70;99.90;;;;;;5114560;28;20043;-71
2022/02/18 02:48:27;;;;;;;12.90;2.60;;;4.80;99.90;;;;;;5114574;28;20071;-71
2022/02/18 02:50:52;;;;;;;9.73;2.72;;;4.80;99.90;;;;;;5114187;28;20039;-71
2022/02/18 02:53:18;;;;;;;8.77;2.25;;;4.80;99.90;;;;;;5114628;28;20036;-69
2022/02/18 02:55:44;;;;;;;12.82;3.22;;;4.90;99.90;;;;;;5114508;28;20039;-69
2022/02/18 02:58:09;;;;;;;9.90;2.22;;;5.00;99.90;;;;;;5114874;28;20609;-69
2022/02/18 03:00:35;;;;;;;11.70;2.92;;;5.00;99.90;;;;;;5114445;28;20048;-70
2022/02/18 03:03:00;;;;;;;12.70;2.78;;;5.00;99.90;;;;;;5113949;28;20039;-71
2022/02/18 03:05:26;;;;;;;12.43;2.90;;;5.00;99.90;;;;;;5114320;28;20122;-71
2022/02/18 03:07:51;;;;;;;15.07;1.92;;;5.10;99.90;;;;;;5114316;28;20115;-70
2022/02/18 03:10:17;;;;;;;14.55;3.67;;;5.10;99.90;;;;;;5114062;28;20046;-70
2022/02/18 03:12:42;;;;;;;17.77;2.70;;;5.20;99.90;;;;;;5113802;28;20119;-71
2022/02/18 03:15:08;;;;;;;11.90;2.65;;;5.10;99.90;;;;;;5114139;28;20074;-71
2022/02/18 03:17:34;;;;;;;10.18;2.20;;;5.20;99.90;;;;;;5113876;28;20082;-71
2022/02/18 03:20:00;;;;;;;9.38;2.38;;;5.20;99.90;;;;;;5104369;22;20069;-71
2022/02/18 03:22:25;;;;;;;8.55;1.73;;;5.20;99.90;;;;;;5052468;28;20090;-71
2022/02/18 03:24:51;;;;;;;12.95;2.33;;;5.30;99.90;;;;;;5051932;28;20033;-71
2022/02/18 03:27:16;;;;;;;7.22;2.63;;;5.30;99.90;;;;;;5053067;28;20055;-71
2022/02/18 03:29:42;;;;;;;12.05;2.45;;;5.30;99.90;;;;;;5050841;28;20509;-71
2022/02/18 03:32:08;;;;;;;9.70;2.10;;;5.30;99.90;;;;;;5051085;28;20033;-71
2022/02/18 03:34:34;;;;;;;8.05;1.75;;;5.30;99.90;;;;;;5053219;28;20442;-71
2022/02/18 03:37:03;;;;;;;11.65;1.75;;;5.30;99.90;;;;;;5053226;28;20076;-71
2022/02/18 03:39:29;;;;;;;10.50;2.75;;;5.30;99.90;;;;;;5052932;28;20088;-71
2022/02/18 03:41:55;;;;;;;7.53;2.35;;;5.40;99.90;;;;;;5051241;28;20128;-71
2022/02/18 03:44:20;;;;;;;7.03;2.15;;;5.40;99.90;;;;;;5051626;28;20125;-71
2022/02/18 03:46:46;;;;;;;11.07;3.40;;;5.40;99.90;;;;;;5052669;28;20045;-71
2022/02/18 03:49:11;;;;;;;12.43;2.70;;;5.30;99.90;;;;;;5052696;28;20625;-71
2022/02/18 03:51:37;;;;;;;10.23;1.98;;;5.40;99.90;;;;;;5052422;28;20041;-71
2022/02/18 03:54:02;;;;;;;18.70;2.80;;;5.40;99.90;;;;;;5051452;28;20033;-71
2022/02/18 03:56:28;;;;;;;10.85;2.45;;;5.40;99.90;;;;;;5052724;28;20041;-71
2022/02/18 03:58:53;;;;;;;11.48;2.40;;;5.40;99.90;;;;;;5052614;28;20128;-71
2022/02/18 04:01:19;;;;;;;10.10;2.65;;;5.40;99.90;;;;;;5050353;28;20033;-71
2022/02/18 04:03:45;;;;;;;6.55;1.85;;;5.40;99.90;;;;;;5051281;28;20037;-71
2022/02/18 04:06:11;;;;;;;9.80;2.00;;;5.30;99.90;;;;;;5051112;28;20634;-71
2022/02/18 04:08:37;;;;;;;15.77;2.47;;;5.40;99.90;;;;;;5052541;28;20044;-71
2022/02/18 04:11:03;;;;;;;9.85;2.33;;;5.40;99.90;;;;;;5052047;28;20051;-71
2022/02/18 04:13:28;;;;;;;13.40;4.28;;;5.40;99.90;;;;;;5051333;28;20068;-71
2022/02/18 04:15:54;;;;;;;11.32;2.15;;;5.40;99.90;;;;;;5052226;28;20037;-71
2022/02/18 04:18:19;;;;;;;16.27;2.65;;;5.40;99.90;;;;;;5052479;28;20036;-71
2022/02/18 04:20:45;;;;;;;7.65;1.88;;;5.40;99.90;;;;;;5050719;28;20044;-71
2022/02/18 04:23:11;;;;;;;11.43;2.10;;;5.40;99.90;;;;;;5052101;28;20040;-71
2022/02/18 04:25:36;;;;;;;11.32;2.53;;;5.40;99.90;;;;;;5052144;28;20044;-71
2022/02/18 04:28:05;;;;;;;6.22;2.30;;;5.40;99.90;;;;;;5050815;28;20040;-71
2022/02/18 04:30:31;;;;;;;9.48;2.03;;;5.50;99.90;;;;;;5050642;28;20079;-71
2022/02/18 04:32:57;;;;;;;12.18;2.03;;;5.40;99.90;;;;;;5051971;28;20041;-71
2022/02/18 04:35:22;;;;;;;12.25;2.75;;;5.40;99.90;;;;;;5050702;28;20136;-71
2022/02/18 04:37:48;;;;;;;6.78;2.03;;;5.40;99.90;;;;;;5051772;28;20049;-71
2022/02/18 04:40:16;;;;;;;5.63;1.92;;;5.50;99.90;;;;;;5050813;28;20037;-71
2022/02/18 04:42:42;;;;;;;14.38;2.00;;;5.50;99.90;;;;;;5050321;28;20045;-71
2022/02/18 04:45:08;;;;;;;8.05;1.55;;;5.50;99.90;;;;;;5050452;28;20044;-71
2022/02/18 04:47:34;;;;;;;10.07;1.90;;;5.50;99.90;;;;;;5050489;28;20048;-71
2022/02/18 04:50:00;;;;;;;7.70;1.90;;;5.50;99.90;;;;;;5050386;28;20037;-71
2022/02/18 04:52:25;;;;;;;17.00;2.42;;;5.50;99.90;;;;;;5050142;28;20125;-71
2022/02/18 04:54:53;;;;;;;9.85;1.77;;;5.60;99.90;;;;;;5050747;28;20044;-71
2022/02/18 04:57:19;;;;;;;12.75;2.10;;;5.60;99.90;;;;;;5050422;28;20632;-71
2022/02/18 04:59:44;;;;;;;11.63;1.65;;;5.60;99.90;;;;;;5050575;28;20070;-71
2022/02/18 05:02:10;;;;;;;11.57;1.98;;;5.60;99.90;;;;;;5050407;28;20055;-71
2022/02/18 05:04:35;;;;;;;12.35;1.90;;;5.60;99.90;;;;;;5050587;28;20049;-71
2022/02/18 05:07:01;;;;;;;9.85;2.38;;;5.70;99.90;;;;;;5050366;28;20041;-71
2022/02/18 05:09:27;;;;;;;6.10;1.80;;;5.70;99.90;;;;;;5050514;28;20052;-71
2022/02/18 05:11:52;;;;;;;9.10;2.50;;;5.70;99.90;;;;;;5050322;28;20080;-71
2022/02/18 05:14:18;;;;;;;10.60;2.80;;;5.70;99.90;;;;;;5052336;28;20148;-71
2022/02/18 05:16:44;;;;;;;8.35;2.47;;;5.70;99.90;;;;;;5054689;28;20498;-71
2022/02/18 05:19:10;;;;;;;10.90;2.75;;;5.70;99.90;;;;;;5055765;28;20060;-71
2022/02/18 05:21:39;;;;;;;10.73;2.20;;;5.80;99.90;;;;;;5054153;28;20487;-71
2022/02/18 05:24:07;;;;;;;14.98;2.47;;;5.80;99.90;;;;;;5054541;28;20049;-72
2022/02/18 05:26:33;;;;;;;20.55;3.05;;;5.80;99.90;;;;;;5055358;28;20041;-71
2022/02/18 05:28:59;;;;;;;10.13;3.00;;;5.80;99.90;;;;;;5055443;28;20080;-71
2022/02/18 05:31:24;;;;;;;9.55;2.90;;;5.70;99.90;;;;;;5055217;28;20073;-71
2022/02/18 05:33:50;;;;;;;15.75;3.83;;;5.80;99.90;;;;;;5054296;28;20048;-71
2022/02/18 05:36:16;;;;;;;10.65;3.03;;;5.70;99.90;;;;;;5055264;28;20052;-71
2022/02/18 05:38:43;;;;;;;15.32;4.03;;;5.70;99.90;;;;;;5054190;28;20479;-71
2022/02/18 05:41:16;;;;;;;17.85;5.18;;;5.80;99.90;;;;;;5037247;28;20048;-72
2022/02/18 05:43:42;;;;;;;13.13;4.53;;;5.80;99.90;;;;;;5055443;28;20041;-71
2022/02/18 05:46:08;;;;;;;15.40;4.32;;;5.70;99.90;;;;;;5055262;28;20041;-71
2022/02/18 05:48:34;;;;;;;16.33;4.90;;;5.80;99.90;;;;;;5055043;28;20371;-71
2022/02/18 05:51:04;;;;;;;11.20;3.97;;;5.80;99.90;;;;;;5036807;28;20068;-72
2022/02/18 05:53:30;;;;;;;19.83;4.65;;;5.80;99.90;;;;;;5055001;28;20122;-71
2022/02/18 05:55:56;;;;;;;22.33;5.63;;;5.80;99.90;;;;;;5053865;28;20072;-72
2022/02/18 05:58:21;;;;;;;12.10;4.25;;;5.80;99.90;;;;;;5054904;28;20037;-71
2022/02/18 06:00:48;;;;;;;17.20;4.68;;;5.80;99.90;;;;;;5053371;28;20437;-71
2022/02/18 06:03:13;;;;;;;16.75;3.92;;;5.90;99.90;;;;;;5054752;28;20037;-72
2022/02/18 06:05:40;;;;;;;15.73;4.70;;;5.90;99.90;;;;;;5054769;28;20087;-71
2022/02/18 06:08:06;;;;;;;15.70;5.50;;;5.90;99.90;;;;;;5054803;28;20130;-71
2022/02/18 06:10:32;;;;;;;14.80;4.18;;;5.90;99.90;;;;;;5054531;28;20071;-72
2022/02/18 06:12:57;;;;;;;15.95;4.95;;;5.90;99.90;;;;;;5054420;28;20072;-72
2022/02/18 06:15:23;;;;;;;13.07;4.75;;;5.90;99.90;;;;;;5053575;28;20043;-72
2022/02/18 06:17:49;;;;;;;14.18;4.38;;;5.90;99.90;;;;;;5053263;28;20045;-71
2022/02/18 06:20:14;;;;;;;13.98;4.88;;;6.00;99.90;;;;;;5060962;28;20082;-71
2022/02/18 06:22:40;;;;;;;21.88;6.07;;;5.90;99.90;;;;;;5056321;28;20045;-71
2022/02/18 06:25:08;;;;;;;20.92;5.03;;;5.90;99.90;;;;;;5073831;28;20561;-71
2022/02/18 06:27:34;;;;;;;21.75;4.90;;;5.90;99.90;;;;;;5074514;28;20098;-72
2022/02/18 06:29:59;;;;;;;15.68;5.70;;;5.90;99.90;;;;;;5056316;28;20493;-71
2022/02/18 06:32:25;;;;;;;22.20;5.72;;;5.90;99.90;;;;;;5074046;28;20032;-71
2022/02/18 06:34:52;;;;;;;23.10;4.55;;;5.90;99.90;;;;;;5056505;28;20397;-71
2022/02/18 06:37:18;;;;;;;21.98;4.65;;;5.90;99.90;;;;;;5074156;28;20039;-71
2022/02/18 06:39:44;;;;;;;15.60;4.78;;;5.80;99.90;;;;;;5074008;28;20048;-72
2022/02/18 06:42:10;;;;;;;16.80;4.88;;;5.80;99.90;;;;;;5073986;28;20132;-71
2022/02/18 06:44:36;;;;;;;23.88;5.07;;;5.80;99.90;;;;;;5056368;28;20040;-71
2022/02/18 06:47:01;;;;;;;28.02;5.22;;;5.80;99.90;;;;;;5055966;28;20045;-71
2022/02/18 06:49:27;;;;;;;23.13;6.07;;;5.80;99.90;;;;;;5073834;28;20037;-71
2022/02/18 06:51:56;;;;;;;22.15;6.28;;;5.70;99.90;;;;;;5038737;28;20709;-71
2022/02/18 06:54:22;;;;;;;24.42;6.20;;;5.80;99.90;;;;;;5073965;28;20040;-71
2022/02/18 06:56:48;;;;;;;17.95;5.35;;;5.70;99.90;;;;;;5073863;28;20553;-71
2022/02/18 06:59:14;;;;;;;25.25;5.93;;;5.70;99.90;;;;;;5073838;28;20044;-71
2022/02/18 07:01:42;;;;;;;20.45;5.40;;;5.70;99.90;;;;;;5055168;28;20506;-71
2022/02/18 07:04:08;;;;;;;20.77;5.32;;;5.70;99.90;;;;;;5055527;28;20037;-71
2022/02/18 07:06:34;;;;;;;15.50;4.85;;;5.70;99.90;;;;;;5055685;28;20049;-71
2022/02/18 07:09:00;;;;;;;18.48;4.35;;;5.80;99.90;;;;;;5073428;28;20110;-71
2022/02/18 07:11:26;;;;;;;20.85;5.70;;;5.80;99.90;;;;;;5073300;28;20037;-71
2022/02/18 07:13:51;;;;;;;21.88;5.57;;;5.70;99.90;;;;;;5055706;28;20037;-71
2022/02/18 07:16:17;;;;;;;15.93;5.13;;;5.70;99.90;;;;;;5055404;28;20049;-71
2022/02/18 07:18:43;;;;;;;16.45;5.40;;;5.80;99.90;;;;;;5055394;28;20036;-71
2022/02/18 07:21:09;;;;;;;21.63;5.68;;;5.80;99.90;;;;;;5054885;28;20410;-71
2022/02/18 07:23:34;;;;;;;24.48;5.28;;;5.80;99.90;;;;;;5073359;28;20044;-71
2022/02/18 07:26:01;;;;;;;16.83;5.82;;;5.80;99.90;;;;;;5073113;28;20041;-71
2022/02/18 07:28:27;;;;;;;19.48;6.25;;;5.80;99.90;;;;;;5073167;28;20057;-71
2022/02/18 07:30:53;;;;;;;21.83;6.60;;;5.80;99.90;;;;;;5054879;28;20047;-70
2022/02/18 07:33:18;;;;;;;26.02;6.55;;;5.80;99.90;;;;;;5072772;28;20049;-71
2022/02/18 07:35:44;;;;;;;18.73;7.20;;;5.80;99.90;;;;;;5054405;28;20041;-71
2022/02/18 07:38:11;;;;;;;26.98;8.30;;;5.80;99.90;;;;;;5072722;28;20375;-72
2022/02/18 07:40:37;;;;;;;29.15;9.25;;;5.90;99.90;;;;;;5054769;28;20072;-71
2022/02/18 07:43:03;;;;;;;25.98;9.70;;;5.90;99.90;;;;;;5054545;28;20489;-71
2022/02/18 07:45:29;;;;;;;27.90;9.85;;;5.90;99.90;;;;;;5054766;28;20060;-71
2022/02/18 07:47:55;;;;;;;35.55;10.13;;;5.90;99.90;;;;;;5072636;28;20551;-71
2022/02/18 07:50:22;;;;;;;25.75;9.50;;;6.00;99.90;;;;;;5072386;28;20487;-71
2022/02/18 07:52:47;;;;;;;37.28;11.07;;;6.00;99.90;;;;;;5054445;28;20044;-71
2022/02/18 07:55:13;;;;;;;32.58;10.30;;;6.00;99.90;;;;;;5072694;28;20043;-71
2022/02/18 07:57:38;;;;;;;31.40;10.00;;;6.00;99.90;;;;;;5072453;28;20537;-72
2022/02/18 08:00:05;;;;;;;30.85;10.50;;;6.10;99.90;;;;;;5072242;28;20032;-71
2022/02/18 08:02:31;;;;;;;25.23;9.02;;;6.10;99.90;;;;;;5054255;28;20040;-71
2022/02/18 08:04:57;;;;;;;24.00;9.77;;;6.10;99.90;;;;;;5054341;28;20101;-71
2022/02/18 08:07:22;;;;;;;32.05;9.85;;;6.10;99.90;;;;;;5054409;28;20072;-71
2022/02/18 08:09:48;;;;;;;28.13;9.90;;;6.20;99.90;;;;;;5054360;28;20044;-71
2022/02/18 08:12:14;;;;;;;33.30;9.93;;;6.20;99.90;;;;;;5072080;28;20078;-71
2022/02/18 08:14:39;;;;;;;34.00;10.73;;;6.20;99.90;;;;;;5037323;28;20123;-71
2022/02/18 08:17:05;;;;;;;32.80;8.90;;;6.20;99.90;;;;;;5053804;28;20433;-71
2022/02/18 08:19:31;;;;;;;34.08;9.77;;;6.20;99.90;;;;;;5053836;28;20413;-71
2022/02/18 08:21:57;;;;;;;39.60;10.43;;;6.20;99.90;;;;;;5068822;28;20052;-71
2022/02/18 08:24:22;;;;;;;37.63;10.15;;;6.30;99.90;;;;;;5071796;28;20032;-71
2022/02/18 08:26:50;;;;;;;32.63;9.55;;;6.30;99.90;;;;;;5071520;28;20032;-71
2022/02/18 08:29:21;;;;;;;34.13;10.43;;;6.30;99.90;;;;;;5071402;28;20549;-72
2022/02/18 08:31:47;;;;;;;31.17;8.85;;;6.30;99.90;;;;;;5053559;28;20098;-71
2022/02/18 08:34:13;;;;;;;34.53;9.18;;;6.30;99.90;;;;;;5071761;28;20044;-71
2022/02/18 08:36:38;;;;;;;32.33;7.90;;;6.40;99.90;;;;;;5053891;28;20036;-71
2022/02/18 08:39:06;;;;;;;31.80;8.68;;;6.30;99.90;;;;;;5053991;28;20040;-71
2022/02/18 08:41:33;;;;;;;36.35;7.93;;;6.40;99.90;;;;;;5049999;28;20147;-71
2022/02/18 08:43:59;;;;;;;26.65;9.10;;;6.40;99.90;;;;;;5071313;28;20093;-70
2022/02/18 08:46:26;;;;;;;29.02;9.77;;;6.40;99.90;;;;;;5053216;28;20498;-70
2022/02/18 08:48:51;;;;;;;37.20;7.97;;;6.40;99.90;;;;;;5071309;28;20047;-71
2022/02/18 08:51:17;;;;;;;33.22;9.05;;;6.40;99.90;;;;;;5053025;28;20036;-71
2022/02/18 08:53:43;;;;;;;32.45;9.20;;;6.50;99.90;;;;;;5071687;28;20044;-72
2022/02/18 08:56:09;;;;;;;38.35;9.63;;;6.50;99.90;;;;;;5053696;28;20055;-70
2022/02/18 08:58:34;;;;;;;33.58;9.55;;;6.50;99.90;;;;;;5053557;28;20045;-74
2022/02/18 09:01:00;;;;;;;26.55;9.35;;;6.50;99.90;;;;;;5071278;28;20032;-73
2022/02/18 09:03:25;;;;;;;29.00;9.55;;;6.50;99.90;;;;;;5071486;28;20048;-73
2022/02/18 09:05:51;;;;;;;33.25;10.10;;;6.50;99.90;;;;;;5053442;28;20474;-74
2022/02/18 09:08:17;;;;;;;24.63;9.40;;;6.50;99.90;;;;;;5053288;28;20052;-73
2022/02/18 09:10:44;;;;;;;28.00;9.45;;;6.50;99.90;;;;;;5071561;28;20492;-73
2022/02/18 09:13:10;;;;;;;26.33;10.35;;;6.60;99.90;;;;;;5053299;28;20033;-73
2022/02/18 09:15:36;;;;;;;23.45;10.05;;;6.60;99.90;;;;;;5071504;28;20043;-73
2022/02/18 09:18:01;;;;;;;24.08;9.65;;;6.60;99.90;;;;;;5071409;28;20131;-73
2022/02/18 09:20:27;;;;;;;20.70;10.52;;;6.70;99.90;;;;;;5075546;22;20079;-72
2022/02/18 09:22:53;;;;;;;23.40;9.80;;;6.70;99.90;;;;;;5070948;28;20036;-72
2022/02/18 09:25:19;;;;;;;18.20;9.60;;;6.80;99.90;;;;;;5071422;28;20063;-72
2022/02/18 09:27:46;;;;;;;21.15;10.15;;;6.70;99.90;;;;;;5071422;28;20059;-72
2022/02/18 09:30:12;;;;;;;19.05;9.88;;;6.80;99.90;;;;;;5069795;28;20044;-72
2022/02/18 09:32:38;;;;;;;20.45;10.23;;;6.80;99.90;;;;;;5071030;28;20512;-72
2022/02/18 09:35:04;;;;;;;19.13;10.55;;;6.80;99.90;;;;;;5070210;28;20037;-72
2022/02/18 09:37:30;;;;;;;20.30;9.95;;;6.90;99.90;;;;;;5071270;28;20062;-71
2022/02/18 09:39:56;;;;;;;21.67;9.75;;;6.90;99.90;;;;;;5070163;28;20040;-71
2022/02/18 09:42:23;;;;;;;18.55;9.30;;;6.90;99.90;;;;;;5069715;28;20047;-72
2022/02/18 09:44:50;;;;;;;23.02;9.25;;;6.90;99.90;;;;;;5071138;28;20036;-71
2022/02/18 09:47:16;;;;;;;17.40;10.38;;;7.00;99.90;;;;;;5069773;28;20051;-71
2022/02/18 09:49:43;;;;;;;19.58;9.27;;;7.00;99.90;;;;;;5071403;28;20086;-72
2022/02/18 09:52:11;;;;;;;14.02;8.98;;;7.00;99.90;;;;;;5070809;28;20455;-71
2022/02/18 09:54:37;;;;;;;18.95;10.27;;;7.10;99.90;;;;;;5071227;28;20473;-72
2022/02/18 09:57:03;;;;;;;16.05;8.00;;;7.20;99.90;;;;;;5071039;28;20512;-72
2022/02/18 09:59:29;;;;;;;13.88;8.70;;;7.20;99.90;;;;;;5071680;28;20432;-72
2022/02/18 10:01:55;;;;;;;13.52;7.03;;;7.30;99.90;;;;;;5074675;28;20048;-71
2022/02/18 10:04:21;;;;;;;13.77;7.03;;;7.40;99.90;;;;;;5074896;28;20036;-72
2022/02/18 10:06:47;;;;;;;13.57;6.75;;;7.40;99.90;;;;;;5074813;28;20040;-72
2022/02/18 10:09:14;;;;;;;15.18;7.22;;;7.50;99.90;;;;;;5074233;28;20444;-72
2022/02/18 10:11:51;;;;;;;16.23;6.85;;;7.50;99.90;;;;;;5074268;28;20498;-72
2022/02/18 10:14:17;;;;;;;14.18;6.55;;;7.60;99.90;;;;;;5074538;28;20043;-71
2022/02/18 10:16:44;;;;;;;17.13;7.40;;;7.60;99.90;;;;;;5074649;28;20036;-71
2022/02/18 10:19:10;;;;;;;17.25;7.20;;;7.70;99.90;;;;;;5074318;28;20619;-72
2022/02/18 10:21:38;;;;;;;12.55;6.53;;;7.70;99.90;;;;;;5088884;28;20055;-72
2022/02/18 10:24:15;;;;;;;17.88;7.18;;;7.70;99.90;;;;;;5094724;28;20092;-72
2022/02/18 10:26:46;;;;;;;16.65;7.10;;;7.80;99.90;;;;;;5094673;28;20044;-72
2022/02/18 10:29:21;;;;;;;20.15;7.32;;;7.90;99.90;;;;;;5094590;28;20040;-73
2022/02/18 10:32:11;;;;;;;21.10;7.93;;;8.00;99.90;;;;;;5094116;28;20040;-72
2022/02/18 10:34:53;;;;;;;11.40;6.75;;;8.00;99.90;;;;;;5094420;28;20036;-72
2022/02/18 10:37:20;;;;;;;14.65;7.20;;;8.10;99.90;;;;;;5076306;28;20051;-72
2022/02/18 10:39:46;;;;;;;17.00;7.75;;;8.10;99.90;;;;;;5094387;28;20036;-72
2022/02/18 10:42:15;;;;;;;12.35;7.03;;;8.20;99.90;;;;;;5093973;28;20071;-72
2022/02/18 10:44:40;;;;;;;25.70;7.72;;;8.30;99.90;;;;;;5094122;28;20043;-72
2022/02/18 10:47:19;;;;;;;13.77;7.38;;;8.40;99.90;;;;;;5076062;28;20047;-73
2022/02/18 10:49:46;;;;;;;18.13;8.00;;;8.40;99.90;;;;;;5094467;28;20090;-72
2022/02/18 10:52:13;;;;;;;18.77;8.45;;;8.50;99.90;;;;;;5093850;28;20051;-72
2022/02/18 10:54:39;;;;;;;19.30;8.68;;;8.50;99.90;;;;;;5093928;28;20036;-72
2022/02/18 10:57:11;;;;;;;14.82;7.45;;;8.60;99.90;;;;;;5093790;28;20490;-72
2022/02/18 10:59:37;;;;;;;18.33;8.40;;;8.70;99.90;;;;;;5075771;28;20127;-72
2022/02/18 11:02:03;;;;;;;16.50;8.20;;;8.70;99.90;;;;;;5093770;28;20115;-72
2022/02/18 11:04:28;;;;;;;13.95;8.02;;;8.70;99.90;;;;;;5073730;28;20082;-70
2022/02/18 11:07:08;;;;;;;13.93;7.57;;;8.90;99.90;;;;;;5093231;28;20044;-71
2022/02/18 11:09:36;;;;;;;19.45;9.60;;;9.00;99.90;;;;;;5093474;28;20031;-71
2022/02/18 11:12:10;;;;;;;13.60;8.25;;;9.10;99.90;;;;;;5092431;28;20040;-72
2022/02/18 11:14:41;;;;;;;12.05;7.93;;;9.10;99.90;;;;;;5093659;28;20464;-73
2022/02/18 11:17:06;;;;;;;14.93;7.72;;;9.20;99.90;;;;;;5075221;28;20067;-70
2022/02/18 11:19:32;;;;;;;21.33;9.02;;;9.30;99.90;;;;;;5075238;28;20497;-71
2022/02/18 11:21:58;;;;;;;13.85;7.45;;;9.30;99.90;;;;;;5074770;28;20044;-72
2022/02/18 11:24:25;;;;;;;14.57;7.93;;;9.40;99.90;;;;;;5075122;28;20058;-72
2022/02/18 11:26:51;;;;;;;16.23;8.55;;;9.40;99.90;;;;;;5075117;28;20044;-71
2022/02/18 11:29:20;;;;;;;18.55;8.02;;;9.40;99.90;;;;;;5093422;28;20040;-72
2022/02/18 11:31:56;;;;;;;17.75;7.03;;;9.50;99.90;;;;;;5093034;28;20040;-70
2022/02/18 11:34:30;;;;;;;16.38;6.93;;;9.50;99.90;;;;;;5073541;28;20089;-71
2022/02/18 11:37:29;;;;;;;11.55;6.00;;;9.60;99.90;;;;;;5058351;28;20051;-71
2022/02/18 11:40:18;;;;;;;11.90;6.90;;;9.60;99.90;;;;;;5093078;28;20650;-70
2022/02/18 11:42:58;;;;;;;11.95;6.43;;;9.60;99.90;;;;;;5092858;28;20047;-71
2022/02/18 11:45:25;;;;;;;13.68;7.63;;;9.60;99.90;;;;;;5092964;28;20126;-70
2022/02/18 11:47:50;;;;;;;15.00;6.45;;;9.60;99.90;;;;;;5074590;28;20048;-70
2022/02/18 11:50:18;;;;;;;21.73;8.10;;;9.70;99.90;;;;;;5092847;28;20043;-70
2022/02/18 11:52:49;;;;;;;12.85;7.07;;;9.70;99.90;;;;;;5074354;28;20040;-71
2022/02/18 11:55:33;;;;;;;8.23;5.30;;;9.70;99.90;;;;;;5071682;28;20036;-70
2022/02/18 11:58:11;;;;;;;12.05;6.88;;;9.80;99.90;;;;;;5083158;28;20055;-74
2022/02/18 12:00:49;;;;;;;11.35;5.45;;;9.80;99.90;;;;;;5092637;28;20072;-72
2022/02/18 12:03:23;;;;;;;16.35;5.70;;;9.80;99.90;;;;;;5074520;28;20119;-70
2022/02/18 12:06:16;;;;;;;11.25;6.63;;;9.90;99.90;;;;;;5074297;28;20047;-70
2022/02/18 12:08:52;;;;;;;9.57;6.38;;;10.00;99.90;;;;;;5092696;28;20040;-70
2022/02/18 12:11:20;;;;;;;8.30;5.70;;;10.00;99.90;;;;;;5092414;28;20435;-70
2022/02/18 12:14:12;;;;;;;7.72;5.13;;;10.00;99.90;;;;;;5092559;28;20047;-70
2022/02/18 12:16:39;;;;;;;9.38;5.40;;;10.10;99.90;;;;;;5087677;28;20745;-71
2022/02/18 12:19:15;;;;;;;8.00;5.28;;;10.10;99.90;;;;;;5086715;28;20047;-71
2022/02/18 12:21:55;;;;;;;6.85;5.03;;;10.20;99.90;;;;;;5081396;28;20070;-71
2022/02/18 12:24:30;;;;;;;8.13;5.38;;;10.20;99.90;;;;;;5090357;28;20505;-70
2022/02/18 12:27:24;;;;;;;9.38;5.18;;;10.20;99.90;;;;;;5092374;28;20044;-70
2022/02/18 12:29:54;;;;;;;8.55;4.85;;;10.30;99.90;;;;;;5092315;28;20067;-71
2022/02/18 12:32:21;;;;;;;8.77;5.25;;;10.30;99.90;;;;;;5088382;28;20070;-70
2022/02/18 12:35:07;;;;;;;7.15;4.18;;;10.30;99.90;;;;;;5080913;28;20047;-70
2022/02/18 12:37:33;;;;;;;7.70;5.10;;;10.40;99.90;;;;;;5074706;28;20041;-70
2022/02/18 12:40:00;;;;;;;6.60;4.28;;;10.40;99.90;;;;;;5054116;28;20044;-71
2022/02/18 12:42:29;;;;;;;6.55;4.75;;;10.40;99.90;;;;;;5071721;28;20041;-71
2022/02/18 12:45:00;;;;;;;6.63;4.25;;;10.40;99.90;;;;;;5071760;28;20047;-71
2022/02/18 12:47:28;;;;;;;6.13;3.92;;;10.40;99.90;;;;;;5071555;28;20555;-73